Etusivu
METAR-TAF:

METAR-TAF

Lentoasemat :

Honningsvåg, Norja

Leveyspiiri: 71-01N, Pituuspiiri: 025-59E, korkeus merenpinnasta: 1 m

Tämänhetkinen sää

Tämä raportti tehtiin 50 minuuttia sitten, kello 19.50 UTC
Tuuli 2 kn eri suunnista
Lämpötila 11°C
Kosteus 87%
Ilmanpaine 1024 hPa
Näkyvyys 10 km tai enemmän
ei pilviä alle 1500 m:ssä eikä cumulonimbus-pilviä

METAR: ENHV 231950Z VRB02KT CAVOK 11/09 Q1024

Aika: 22:40 (20:40 UTC)


TAF: puuttuu

Säähavainnot ja -ennusteet yli 4000 lentoasemalta (METAR- ja TAF-raportit).

Käytössä olevat sääasemat on merkitty karttaan keltaisilla ja punaisilla pisteillä.

Aseta hiiri pisteen päälle nähdäksesi sääaseman nimen.

Klikkaa sitten nähdäksesi säähavainnot ja -ennusteet.

Kartan vaihtaminen: klikkaa mustalla rastilla varustettuja vihreitä pisteitä, niin voit zoomata sisään; viivalla varustettua vihreää pistettä, niin voit zoomata ulos tai vihreitä nuolia, niin pääset viereisille kartoille.


METAR-TAF: